Time;durP1;ratioP1;P1;durP2;ratioP2;P2;SDS_P1;SDS_P2;PMS_P1;PMS_P2;Temp;Humidity;BMP_temperature;BMP_pressure;BME280_temperature;BME280_humidity;BME280_pressure;Samples;Min_cycle;Max_cycle;Signal;HPM_P1;HPM_P2
2022/01/04 00:01:50;;;;;;;15.17;3.33;;;;;;;7.40;100.00;99994.50;5019908;28;20179;-73
2022/01/04 00:04:15;;;;;;;15.63;3.30;;;;;;;7.28;100.00;99994.22;5023485;28;20208;-73
2022/01/04 00:06:41;;;;;;;18.20;2.80;;;;;;;7.13;100.00;99956.22;5020869;28;20780;-73
2022/01/04 00:09:07;;;;;;;13.30;3.20;;;;;;;6.36;100.00;99819.44;5023924;28;20870;-72
2022/01/04 00:14:12;;;;;;;23.50;3.70;;;;;;;7.51;100.00;99969.09;5019646;28;20458;-73
2022/01/04 00:16:37;;;;;;;10.47;2.60;;;;;;;6.96;100.00;99883.72;5022216;28;21385;-73
2022/01/04 00:19:03;;;;;;;18.87;4.07;;;;;;;6.97;100.00;99875.53;5024829;28;20468;-73
2022/01/04 00:21:28;;;;;;;11.40;3.43;;;;;;;7.46;100.00;99965.19;5021920;28;20186;-73
2022/01/04 00:23:53;;;;;;;19.33;3.80;;;;;;;6.95;100.00;99877.56;5022684;28;20208;-73
2022/01/04 00:26:19;;;;;;;13.93;2.83;;;;;;;7.01;100.00;99886.63;5023183;28;20192;-73
2022/01/04 00:31:20;;;;;;;18.80;5.30;;;;;;;7.40;100.00;99947.28;5871204;23;20236;-74
2022/01/04 00:33:45;;;;;;;11.07;3.77;;;;;;;7.52;100.00;99952.91;4930353;28;20473;-74
2022/01/04 00:36:11;;;;;;;25.90;5.00;;;;;;;7.57;100.00;99947.75;4966947;28;20196;-75
2022/01/04 00:38:43;;;;;;;18.20;5.37;;;;;;;7.77;100.00;99937.13;4968870;28;20817;-74
2022/01/04 00:41:08;;;;;;;16.27;4.20;;;;;;;7.59;100.00;99942.22;4974425;28;20272;-75
2022/01/04 00:43:34;;;;;;;15.70;3.57;;;;;;;7.68;100.00;99930.34;4969703;28;20459;-74
2022/01/04 00:46:03;;;;;;;16.53;3.97;;;;;;;7.46;100.00;99882.47;4969141;28;20239;-75
2022/01/04 00:51:00;;;;;;;20.50;3.87;;;;;;;7.70;100.00;99913.09;4976605;28;20844;-74
2022/01/04 00:53:25;;;;;;;16.10;3.90;;;;;;;7.91;100.00;99913.94;4974077;28;20449;-75
2022/01/04 00:55:51;;;;;;;18.70;3.57;;;;;;;7.85;100.00;99923.59;4971162;28;20947;-74
2022/01/04 00:58:16;;;;;;;20.00;4.07;;;;;;;7.31;100.00;99840.97;4964703;28;20194;-75
2022/01/04 01:00:42;;;;;;;14.93;3.57;;;;;;;7.52;100.00;99872.00;4970296;28;20208;-74
2022/01/04 01:03:09;;;;;;;19.27;4.47;;;;;;;7.37;100.00;99832.97;4971308;28;20205;-74
2022/01/04 01:05:35;;;;;;;15.03;4.53;;;;;;;7.04;100.00;99779.56;4967547;28;21193;-75
2022/01/04 01:08:00;;;;;;;17.13;4.20;;;;;;;7.10;100.00;99789.41;4963265;28;20451;-74
2022/01/04 01:12:52;;;;;;;20.83;5.30;;;;;;;7.41;100.00;99820.88;4970650;28;20209;-74
2022/01/04 01:15:18;;;;;;;16.00;4.77;;;;;;;7.99;100.00;99891.56;4971575;28;20476;-74
2022/01/04 01:17:44;;;;;;;27.83;5.20;;;;;;;7.89;100.00;99894.63;4970303;28;20198;-74
2022/01/04 01:20:11;;;;;;;18.07;4.53;;;;;;;7.84;100.00;99884.59;4971028;28;20445;-73
2022/01/04 01:22:37;;;;;;;27.43;4.80;;;;;;;6.93;100.00;99758.81;4972464;28;20217;-75
2022/01/04 01:25:04;;;;;;;14.20;3.97;;;;;;;6.89;100.00;99710.44;4970596;28;20502;-74
2022/01/04 01:27:29;;;;;;;12.43;3.27;;;;;;;8.05;100.00;99909.44;4967493;28;20441;-74
2022/01/04 01:30:01;;;;;;;20.40;4.17;;;;;;;8.07;100.00;99886.84;4967253;28;20876;-74
2022/01/04 01:32:29;;;;;;;17.07;3.80;;;;;;;7.54;100.00;99781.88;4975905;28;20257;-75
2022/01/04 01:34:58;;;;;;;16.53;3.60;;;;;;;7.33;100.00;99767.72;4972676;28;20952;-74
2022/01/04 01:37:24;;;;;;;15.63;4.13;;;;;;;7.60;100.00;99845.13;4963497;28;20440;-75
2022/01/04 01:39:49;;;;;;;23.10;4.10;;;;;;;7.81;100.00;99860.13;4976909;28;20455;-75
2022/01/04 01:42:15;;;;;;;17.33;4.20;;;;;;;7.96;100.00;99859.94;4977620;28;20209;-74
2022/01/04 01:44:44;;;;;;;16.50;4.20;;;;;;;7.97;100.00;99861.56;4973006;28;20654;-73
2022/01/04 01:47:09;;;;;;;18.50;3.57;;;;;;;7.95;100.00;99853.75;4973496;28;20193;-74
2022/01/04 01:49:35;;;;;;;18.97;4.13;;;;;;;7.18;100.00;99717.22;4971630;28;20443;-73
2022/01/04 01:52:04;;;;;;;17.37;3.57;;;;;;;7.31;100.00;99753.75;4974479;28;20209;-74
2022/01/04 01:54:34;;;;;;;17.93;4.47;;;;;;;6.61;100.00;99654.59;4977900;28;20248;-73
2022/01/04 01:56:59;;;;;;;16.43;3.67;;;;;;;7.89;100.00;99865.25;4975052;28;20514;-75
2022/01/04 01:59:25;;;;;;;16.63;4.40;;;;;;;7.21;100.00;99748.81;4972894;28;20447;-74
2022/01/04 02:01:51;;;;;;;14.43;3.80;;;;;;;7.41;100.00;99761.38;4976470;28;20223;-74
2022/01/04 02:04:17;;;;;;;16.33;4.20;;;;;;;7.69;100.00;99803.84;4978484;28;20185;-74
2022/01/04 02:06:45;;;;;;;14.83;3.40;;;;;;;7.85;100.00;99830.16;4969223;28;20452;-75
2022/01/04 02:09:11;;;;;;;16.33;4.33;;;;;;;7.81;100.00;99810.25;4970273;28;21386;-74
2022/01/04 02:11:40;;;;;;;20.33;4.47;;;;;;;7.49;100.00;99761.16;4974528;28;20579;-74
2022/01/04 02:14:08;;;;;;;19.47;4.80;;;;;;;7.84;100.00;99787.63;4969922;28;20186;-74
2022/01/04 02:16:46;;;;;;;14.70;4.50;;;;;;;7.23;100.00;99689.94;4968008;28;20442;-73
2022/01/04 02:19:12;;;;;;;18.80;5.00;;;;;;;7.91;100.00;99809.81;4977272;28;20933;-73
2022/01/04 02:21:41;;;;;;;22.60;4.90;;;;;;;7.21;100.00;99716.00;4971346;28;21044;-74
2022/01/04 02:24:07;;;;;;;14.50;4.27;;;;;;;7.69;100.00;99787.84;4972487;28;20477;-75
2022/01/04 02:26:33;;;;;;;16.93;3.83;;;;;;;7.89;100.00;99777.16;4967762;28;20537;-75
2022/01/04 02:29:04;;;;;;;23.03;5.13;;;;;;;7.88;100.00;99794.22;4972002;28;20785;-74
2022/01/04 02:31:30;;;;;;;21.07;4.33;;;;;;;7.83;100.00;99792.16;4969366;28;20485;-74
2022/01/04 02:33:55;;;;;;;19.47;3.80;;;;;;;7.68;100.00;99802.22;4974930;28;20472;-76
2022/01/04 02:36:24;;;;;;;13.47;3.43;;;;;;;7.52;100.00;99760.75;4972697;28;20209;-74
2022/01/04 02:38:51;;;;;;;19.87;3.63;;;;;;;6.62;100.00;99594.94;4971281;28;20194;-74
2022/01/04 02:41:16;;;;;;;17.33;4.10;;;;;;;7.78;100.00;99781.28;4962941;28;20875;-73
2022/01/04 02:43:42;;;;;;;17.70;3.50;;;;;;;7.35;100.00;99706.19;4971627;28;21009;-74
2022/01/04 02:46:07;;;;;;;15.53;3.73;;;;;;;6.95;100.00;99645.63;4974508;28;20197;-75
2022/01/04 02:48:43;;;;;;;13.60;3.50;;;;;;;7.18;100.00;99687.91;4972832;28;20217;-74
2022/01/04 02:51:10;;;;;;;21.27;4.43;;;;;;;7.58;100.00;99762.59;4969047;28;20298;-74
2022/01/04 02:53:35;;;;;;;14.13;3.57;;;;;;;7.36;100.00;99687.28;4971208;28;20446;-74
2022/01/04 02:56:01;;;;;;;12.20;3.27;;;;;;;7.75;100.00;99765.66;4970926;28;20942;-74
2022/01/04 02:58:26;;;;;;;10.63;2.63;;;;;;;7.80;100.00;99755.19;4971389;28;20194;-74
2022/01/04 03:00:52;;;;;;;16.77;3.20;;;;;;;6.81;100.00;99595.19;4971288;28;20262;-73
2022/01/04 03:03:17;;;;;;;18.70;4.83;;;;;;;7.50;100.00;99708.63;4978877;28;20186;-73
2022/01/04 03:05:46;;;;;;;9.23;2.90;;;;;;;7.61;100.00;99740.84;4968302;28;20202;-73
2022/01/04 03:08:11;;;;;;;12.60;3.90;;;;;;;7.37;100.00;99706.78;4980194;28;20206;-73
2022/01/04 03:10:37;;;;;;;16.87;4.20;;;;;;;7.12;100.00;99688.72;4971887;28;20468;-73
2022/01/04 03:13:04;;;;;;;15.40;4.00;;;;;;;7.73;100.00;99743.72;4965709;28;20206;-74
2022/01/04 03:15:36;;;;;;;11.23;3.93;;;;;;;7.22;100.00;99642.97;4971885;28;20193;-73
2022/01/04 03:18:05;;;;;;;18.53;4.83;;;;;;;7.98;100.00;99730.50;4988201;28;20439;-74
2022/01/04 03:20:36;;;;;;;12.80;3.60;;;;;;;7.65;100.00;99709.22;4968556;28;20475;-74
2022/01/04 03:23:02;;;;;;;13.63;3.97;;;;;;;7.82;100.00;99721.09;4967565;28;20484;-74
2022/01/04 03:25:28;;;;;;;19.07;4.03;;;;;;;7.87;100.00;99709.81;4964971;28;20449;-75
2022/01/04 03:28:13;;;;;;;21.13;4.17;;;;;;;7.85;100.00;99707.34;4969088;28;20508;-75
2022/01/04 03:30:40;;;;;;;19.97;4.23;;;;;;;7.81;100.00;99716.81;4969882;28;20296;-74
2022/01/04 03:33:05;;;;;;;12.97;3.70;;;;;;;6.99;100.00;99558.06;4968844;28;20480;-73
2022/01/04 03:35:31;;;;;;;16.97;3.80;;;;;;;7.36;100.00;99619.78;4965585;28;21014;-74
2022/01/04 03:37:56;;;;;;;14.27;3.70;;;;;;;7.84;100.00;99692.34;4968249;28;20193;-75
2022/01/04 03:40:24;;;;;;;15.23;3.87;;;;;;;7.70;100.00;99670.22;4963531;28;20793;-75
2022/01/04 03:42:50;;;;;;;19.00;4.67;;;;;;;6.70;100.00;99527.31;4965264;28;20215;-75
2022/01/04 03:45:15;;;;;;;12.53;3.87;;;;;;;6.83;100.00;99550.47;4966349;28;20445;-73
2022/01/04 03:47:44;;;;;;;20.10;4.30;;;;;;;7.31;100.00;99617.72;4968879;28;20649;-74
2022/01/04 03:50:10;;;;;;;19.30;4.07;;;;;;;7.76;100.00;99684.56;4966597;28;21143;-74
2022/01/04 03:52:36;;;;;;;21.03;4.87;;;;;;;7.57;100.00;99661.41;4964598;28;20477;-74
2022/01/04 03:55:05;;;;;;;25.37;4.87;;;;;;;7.16;100.00;99609.94;4966691;28;20503;-74
2022/01/04 03:57:33;;;;;;;18.33;4.00;;;;;;;7.66;100.00;99676.97;4965881;28;20540;-74
2022/01/04 04:00:04;;;;;;;20.83;4.73;;;;;;;7.14;100.00;99603.16;4962416;28;20441;-74
2022/01/04 04:02:29;;;;;;;14.73;4.03;;;;;;;7.46;100.00;99634.34;4946080;28;20462;-73
2022/01/04 04:04:58;;;;;;;21.83;4.20;;;;;;;7.51;100.00;99654.22;4961727;28;20460;-74
2022/01/04 04:07:23;;;;;;;11.67;3.93;;;;;;;7.24;100.00;99615.06;4963682;28;20232;-75
2022/01/04 04:09:49;;;;;;;19.13;4.60;;;;;;;7.54;100.00;99654.63;4965329;28;20453;-74
2022/01/04 04:12:21;;;;;;;15.63;3.73;;;;;;;7.30;100.00;99599.25;4961892;28;20297;-74
2022/01/04 04:14:46;;;;;;;17.10;5.10;;;;;;;7.48;100.00;99626.09;4951996;28;20205;-76
2022/01/04 04:17:15;;;;;;;17.50;4.83;;;;;;;6.95;100.00;99538.19;4962956;28;20452;-73
2022/01/04 04:19:43;;;;;;;15.50;5.13;;;;;;;6.73;100.00;99509.06;4969572;28;20692;-73
2022/01/04 04:22:09;;;;;;;12.23;4.50;;;;;;;7.43;100.00;99609.91;4963217;28;20889;-75
2022/01/04 04:24:34;;;;;;;20.73;5.23;;;;;;;7.06;100.00;99524.22;4966866;28;20524;-73
2022/01/04 04:27:00;;;;;;;17.00;5.40;;;;;;;6.95;100.00;99511.53;4967606;28;20760;-73
2022/01/04 04:29:25;;;;;;;18.70;5.07;;;;;;;7.37;100.00;99586.72;4967446;28;20198;-75
2022/01/04 04:31:51;;;;;;;17.73;5.60;;;;;;;7.62;100.00;99610.91;4966432;28;20243;-74
2022/01/04 04:34:17;;;;;;;15.80;5.13;;;;;;;7.61;100.00;99609.25;4962482;28;20677;-75
2022/01/04 04:36:42;;;;;;;19.33;5.23;;;;;;;7.46;100.00;99564.13;4966765;28;20441;-74
2022/01/04 04:39:08;;;;;;;20.23;4.77;;;;;;;6.68;100.00;99465.41;4966522;28;20190;-75
2022/01/04 04:41:39;;;;;;;18.57;5.60;;;;;;;7.60;100.00;99591.59;4967289;28;20210;-73
2022/01/04 04:44:08;;;;;;;14.80;5.37;;;;;;;7.31;100.00;99542.22;4960921;28;20257;-74
2022/01/04 04:46:33;;;;;;;20.23;5.33;;;;;;;7.64;100.00;99572.28;4967218;28;20474;-73
2022/01/04 04:48:59;;;;;;;17.80;5.47;;;;;;;7.29;100.00;99563.78;4965256;28;20811;-74
2022/01/04 04:51:26;;;;;;;18.40;5.30;;;;;;;7.48;100.00;99578.09;4964587;28;20586;-74
2022/01/04 04:53:52;;;;;;;19.77;5.93;;;;;;;7.01;100.00;99492.03;4968564;28;20432;-73
2022/01/04 04:56:17;;;;;;;24.17;5.57;;;;;;;7.15;100.00;99504.31;4961344;28;20430;-74
2022/01/04 04:58:43;;;;;;;19.20;5.70;;;;;;;7.44;100.00;99568.88;4964002;28;20229;-74
2022/01/04 05:01:08;;;;;;;18.40;5.27;;;;;;;6.76;100.00;99446.56;4962257;28;20647;-73
2022/01/04 05:03:34;;;;;;;22.70;6.60;;;;;;;5.36;100.00;99192.97;4984602;28;20564;-74
2022/01/04 05:06:00;;;;;;;17.27;6.00;;;;;;;7.70;100.00;99565.31;4969053;28;20575;-73
2022/01/04 05:08:25;;;;;;;20.60;6.50;;;;;;;7.51;100.00;99576.84;4969894;28;20260;-74
2022/01/04 05:10:51;;;;;;;21.13;5.70;;;;;;;7.23;100.00;99552.09;4968344;28;20189;-75
2022/01/04 05:13:19;;;;;;;19.93;6.43;;;;;;;7.51;100.00;99574.19;4976415;28;20205;-73
2022/01/04 05:15:44;;;;;;;21.20;5.87;;;;;;;7.59;100.00;99593.44;4970655;28;20256;-73
2022/01/04 05:18:31;;;;;;;18.73;5.83;;;;;;;7.66;100.00;99588.09;4973684;28;20445;-74
2022/01/04 05:21:05;;;;;;;20.43;6.40;;;;;;;6.97;100.00;99486.31;4966558;28;20198;-76
2022/01/04 05:23:32;;;;;;;15.33;5.90;;;;;;;6.76;100.00;99466.03;4967177;28;20970;-75
2022/01/04 05:25:57;;;;;;;22.30;6.83;;;;;;;7.37;100.00;99552.03;4969856;28;20445;-74
2022/01/04 05:28:26;;;;;;;11.60;5.83;;;;;;;7.25;100.00;99531.34;4967239;28;20518;-74
2022/01/04 05:30:51;;;;;;;17.27;6.70;;;;;;;7.35;100.00;99554.94;4968301;28;20194;-73
2022/01/04 05:33:17;;;;;;;18.07;6.37;;;;;;;7.15;100.00;99488.31;4972308;28;20579;-74
2022/01/04 05:35:43;;;;;;;24.87;6.10;;;;;;;7.56;100.00;99540.50;4972385;28;20189;-74
2022/01/04 05:38:09;;;;;;;14.47;6.07;;;;;;;6.65;100.00;99402.69;4964557;28;20397;-73
2022/01/04 05:40:35;;;;;;;15.73;5.20;;;;;;;7.45;100.00;99527.81;4971631;28;20186;-73
2022/01/04 05:43:01;;;;;;;11.70;4.20;;;;;;;7.22;100.00;99485.63;4968514;28;20460;-73
2022/01/04 05:45:32;;;;;;;13.60;4.60;;;;;;;7.51;100.00;99473.59;4965397;28;20186;-74
2022/01/04 05:48:01;;;;;;;12.27;4.83;;;;;;;7.39;100.00;99491.31;4968302;28;20433;-73
2022/01/04 05:50:30;;;;;;;22.30;6.07;;;;;;;7.71;100.00;99516.22;4967941;28;20449;-73
2022/01/04 05:52:56;;;;;;;12.33;5.20;;;;;;;7.42;100.00;99451.69;4958984;28;21084;-73
2022/01/04 05:55:27;;;;;;;17.97;6.27;;;;;;;6.90;100.00;99397.53;4969252;28;20436;-74
2022/01/04 05:57:53;;;;;;;17.90;6.30;;;;;;;7.66;100.00;99498.16;4977071;28;20177;-74
2022/01/04 06:00:19;;;;;;;20.23;7.57;;;;;;;7.15;100.00;99412.84;4976964;28;20444;-74
2022/01/04 06:02:47;;;;;;;15.70;5.80;;;;;;;7.18;100.00;99409.75;4970336;28;20224;-72
2022/01/04 06:05:13;;;;;;;18.97;6.50;;;;;;;7.59;100.00;99500.06;4974012;28;20445;-73
2022/01/04 06:07:45;;;;;;;19.57;6.90;;;;;;;7.42;100.00;99491.69;4971984;28;20437;-73
2022/01/04 06:10:12;;;;;;;25.93;7.70;;;;;;;7.18;100.00;99461.22;4968080;28;20181;-73
2022/01/04 06:15:16;;;;;;;18.33;7.10;;;;;;;7.55;100.00;99492.66;4965017;28;20444;-72
2022/01/04 06:17:43;;;;;;;24.13;7.50;;;;;;;6.86;100.00;99377.66;4972601;28;20432;-73
2022/01/04 06:20:12;;;;;;;18.87;7.10;;;;;;;6.72;100.00;99376.06;4963034;28;20442;-73
2022/01/04 06:22:39;;;;;;;25.47;8.03;;;;;;;7.22;100.00;99445.63;4962077;28;20582;-73
2022/01/04 06:25:06;;;;;;;17.70;7.70;;;;;;;6.90;100.00;99373.53;4961698;28;20455;-73
2022/01/04 06:27:32;;;;;;;17.33;7.17;;;;;;;7.21;100.00;99434.13;4955200;28;20930;-73
2022/01/04 06:29:58;;;;;;;19.70;7.70;;;;;;;7.38;100.00;99465.66;4946858;28;21343;-72
2022/01/04 06:32:26;;;;;;;15.17;7.23;;;;;;;6.87;100.00;99352.63;4963448;28;20472;-74
2022/01/04 06:34:53;;;;;;;18.87;7.57;;;;;;;7.46;100.00;99468.06;4951302;28;20432;-74
2022/01/04 06:37:18;;;;;;;20.93;8.00;;;;;;;7.12;100.00;99440.72;4965413;28;20986;-74
2022/01/04 06:39:45;;;;;;;21.57;7.43;;;;;;;7.53;100.00;99462.72;4967096;28;20442;-74
2022/01/04 06:42:14;;;;;;;18.27;7.33;;;;;;;6.92;100.00;99376.00;4963639;28;20593;-74
2022/01/04 06:44:46;;;;;;;18.77;7.70;;;;;;;6.98;100.00;99353.81;4972378;28;20437;-74
2022/01/04 06:47:11;;;;;;;15.70;6.97;;;;;;;7.73;100.00;99475.97;4958570;28;20483;-73
2022/01/04 06:49:40;;;;;;;17.43;6.80;;;;;;;7.36;100.00;99417.84;4947937;28;21261;-72
2022/01/04 06:52:06;;;;;;;19.70;7.67;;;;;;;7.51;100.00;99475.47;4963805;28;20217;-73
2022/01/04 06:54:35;;;;;;;17.87;6.50;;;;;;;7.66;100.00;99468.00;4963384;28;20929;-73
2022/01/04 06:57:00;;;;;;;21.20;7.57;;;;;;;7.45;100.00;99472.59;4964729;28;20186;-73
2022/01/04 06:59:26;;;;;;;23.30;7.80;;;;;;;7.28;100.00;99391.41;4965000;28;20948;-72
2022/01/04 07:01:54;;;;;;;18.70;7.43;;;;;;;7.02;100.00;99345.19;4957608;28;21319;-74
2022/01/04 07:04:20;;;;;;;16.90;7.37;;;;;;;7.04;100.00;99338.84;4965988;28;20194;-72
2022/01/04 07:06:46;;;;;;;15.23;6.87;;;;;;;7.69;100.00;99464.88;4970158;28;20465;-73
2022/01/04 07:09:11;;;;;;;23.03;7.90;;;;;;;7.14;100.00;99380.00;4979676;28;20276;-76
2022/01/04 07:11:37;;;;;;;24.30;7.90;;;;;;;7.76;100.00;99452.34;4959737;28;20491;-73
2022/01/04 07:14:04;;;;;;;17.17;7.43;;;;;;;7.59;100.00;99446.69;4962960;28;20186;-74
2022/01/04 07:16:29;;;;;;;22.67;8.07;;;;;;;7.36;100.00;99407.19;4950754;28;20495;-74
2022/01/04 07:18:58;;;;;;;19.10;7.50;;;;;;;7.37;100.00;99410.66;4961142;28;20440;-73
2022/01/04 07:21:24;;;;;;;16.10;7.20;;;;;;;7.58;100.00;99431.72;4959975;28;20248;-73
2022/01/04 07:23:51;;;;;;;9.60;3.77;;;;;;;6.58;100.00;99337.97;4968369;28;20559;-82
2022/01/04 07:26:20;;;;;;;9.67;3.00;;;;;;;6.68;100.00;99359.69;4969526;28;20924;-74
2022/01/04 07:28:50;;;;;;;7.97;2.43;;;;;;;6.78;100.00;99378.69;4968603;28;20513;-75
2022/01/04 07:31:17;;;;;;;4.97;1.53;;;;;;;6.91;100.00;99422.31;4969640;28;20516;-76
2022/01/04 07:33:42;;;;;;;7.50;1.50;;;;;;;7.12;100.00;99446.06;4951095;28;20920;-73
2022/01/04 07:36:15;;;;;;;11.27;1.90;;;;;;;6.93;100.00;99378.44;4967970;28;20452;-74
2022/01/04 07:38:43;;;;;;;4.10;1.43;;;;;;;6.71;100.00;99374.41;4972058;28;20236;-74
2022/01/04 07:41:22;;;;;;;6.93;1.80;;;;;;;7.15;100.00;99461.66;4956522;28;20434;-82
2022/01/04 07:43:49;;;;;;;10.20;1.50;;;;;;;7.26;100.00;99460.16;4967440;28;20455;-76
2022/01/04 07:46:36;;;;;;;7.47;2.40;;;;;;;7.30;100.00;99455.22;4970080;28;20436;-83
2022/01/04 07:49:05;;;;;;;11.13;2.17;;;;;;;6.63;100.00;99422.63;4960605;28;20477;-86
2022/01/04 07:51:31;;;;;;;3.33;1.43;;;;;;;6.65;100.00;99400.03;4968457;28;20477;-83
2022/01/04 07:53:57;;;;;;;4.83;1.33;;;;;;;6.98;100.00;99450.59;4963501;28;20460;-80
2022/01/04 07:56:22;;;;;;;6.30;1.73;;;;;;;7.00;100.00;99456.56;4954058;28;20712;-83
2022/01/04 07:59:00;;;;;;;3.73;1.00;;;;;;;7.09;100.00;99457.16;4963033;28;20445;-82
2022/01/04 08:01:38;;;;;;;6.30;1.23;;;;;;;6.83;100.00;99452.72;4965812;28;20212;-83
2022/01/04 08:04:04;;;;;;;4.57;1.27;;;;;;;6.51;100.00;99423.25;4959647;28;20552;-78
2022/01/04 08:06:43;;;;;;;7.10;1.40;;;;;;;6.92;100.00;99443.44;4966705;28;20438;-84
2022/01/04 08:09:11;;;;;;;6.30;1.60;;;;;;;6.60;100.00;99412.38;4971114;28;20447;-85
2022/01/04 08:11:40;;;;;;;3.67;1.27;;;;;;;5.91;100.00;99291.16;4962417;28;20469;-84
2022/01/04 08:14:08;;;;;;;4.03;1.20;;;;;;;5.73;100.00;99297.09;4967302;28;20833;-82
2022/01/04 08:16:34;;;;;;;3.43;0.93;;;;;;;5.86;100.00;99305.09;4967849;28;21024;-76
2022/01/04 08:19:00;;;;;;;6.60;1.50;;;;;;;6.77;100.00;99405.56;4967414;28;20452;-77
2022/01/04 08:21:26;;;;;;;3.33;1.67;;;;;;;5.44;100.00;99177.63;4965613;28;20205;-77
2022/01/04 08:23:52;;;;;;;3.63;1.30;;;;;;;5.47;100.00;99194.19;4970026;28;20433;-78
2022/01/04 08:26:18;;;;;;;4.67;1.40;;;;;;;6.43;100.00;99308.91;4966156;28;20448;-77
2022/01/04 08:28:52;;;;;;;5.23;1.50;;;;;;;6.36;100.00;99317.94;4970471;28;20508;-81
2022/01/04 08:31:17;;;;;;;7.37;1.20;;;;;;;6.96;100.00;99394.00;4967730;28;20557;-79
2022/01/04 08:33:43;;;;;;;5.83;1.80;;;;;;;6.85;100.00;99402.66;4970155;28;21005;-84
2022/01/04 08:36:10;;;;;;;14.30;1.43;;;;;;;6.82;100.00;99376.44;4968160;28;20198;-81
2022/01/04 08:38:39;;;;;;;3.97;1.60;;;;;;;5.63;100.00;99183.94;4970484;28;20197;-78
2022/01/04 08:41:05;;;;;;;6.20;2.13;;;;;;;6.72;100.00;99338.75;4968291;28;20451;-77
2022/01/04 08:43:34;;;;;;;5.33;2.20;;;;;;;6.72;100.00;99330.75;4980547;28;20457;-80
2022/01/04 08:45:59;;;;;;;6.87;1.60;;;;;;;6.52;100.00;99326.31;4975435;28;20185;-83
2022/01/04 08:48:25;;;;;;;4.83;1.73;;;;;;;7.16;100.00;99411.78;4972335;28;20443;-79
2022/01/04 08:50:51;;;;;;;8.10;1.53;;;;;;;7.21;100.00;99418.13;4972820;28;20248;-77
2022/01/04 08:53:16;;;;;;;7.60;1.63;;;;;;;6.74;100.00;99342.00;4974169;28;20590;-77
2022/01/04 08:55:42;;;;;;;6.67;1.80;;;;;;;5.35;100.00;99106.25;4970123;28;20482;-79
2022/01/04 08:58:11;;;;;;;4.33;1.93;;;;;;;7.42;100.00;99425.00;4967544;28;20268;-77
2022/01/04 09:00:36;;;;;;;11.67;1.97;;;;;;;6.99;100.00;99388.25;4973809;28;20559;-77
2022/01/04 09:03:02;;;;;;;8.00;2.00;;;;;;;7.38;100.00;99429.13;4970895;28;20456;-83
2022/01/04 09:05:28;;;;;;;6.80;1.80;;;;;;;7.31;100.00;99424.84;4970095;28;21015;-80
2022/01/04 09:07:54;;;;;;;8.43;1.80;;;;;;;6.70;100.00;99352.28;4965030;28;20599;-85
2022/01/04 09:10:20;;;;;;;9.53;2.67;;;;;;;6.80;100.00;99341.19;4967321;28;20449;-84
2022/01/04 09:13:04;;;;;;;8.50;2.13;;;;;;;7.11;100.00;99401.75;4971030;28;20637;-83
2022/01/04 09:19:37;;;;;;;7.47;1.90;;;;;;;7.41;100.00;99428.72;4965585;28;20437;-82
2022/01/04 09:22:50;;;;;;;;;;;;;;;;;;;;;
2022/01/04 09:26:31;;;;;;;;;;;;;;;;;;;;;
2022/01/04 09:29:53;;;;;;;9.30;1.27;;;;;;;7.45;100.00;99439.78;4910805;29;20452;-82
2022/01/04 09:32:39;;;;;;;4.87;1.50;;;;;;;7.42;100.00;99437.53;4955055;28;20795;-81
2022/01/04 09:35:05;;;;;;;8.63;1.90;;;;;;;7.22;100.00;99417.09;4958347;28;20844;-83
2022/01/04 09:37:31;;;;;;;4.83;1.50;;;;;;;6.62;100.00;99347.16;4978957;28;20533;-84
2022/01/04 09:39:57;;;;;;;7.53;2.03;;;;;;;7.23;100.00;99440.09;4955574;28;20975;-83
2022/01/04 09:42:22;;;;;;;5.27;1.80;;;;;;;6.49;100.00;99305.41;4962489;28;20695;-80
2022/01/04 09:44:49;;;;;;;8.30;1.57;;;;;;;7.48;100.00;99466.03;4958907;28;20193;-78
2022/01/04 09:47:14;;;;;;;5.53;1.20;;;;;;;7.04;100.00;99410.81;4962335;28;20190;-76
2022/01/04 09:49:40;;;;;;;5.50;1.17;;;;;;;6.41;100.00;99353.56;4961588;28;20483;-78
2022/01/04 09:52:09;;;;;;;2.87;1.07;;;;;;;6.82;100.00;99459.03;4955212;28;20233;-75
2022/01/04 09:54:39;;;;;;;3.63;1.10;;;;;;;7.07;100.00;99456.53;4967850;28;20187;-76
2022/01/04 09:57:08;;;;;;;4.90;1.13;;;;;;;7.09;100.00;99485.63;4971141;28;20962;-75
2022/01/04 09:59:33;;;;;;;1.47;0.80;;;;;;;7.16;100.00;99483.78;4968664;28;20934;-76
2022/01/04 10:02:12;;;;;;;5.30;1.07;;;;;;;6.94;100.00;99497.38;4971811;28;20452;-75
2022/01/04 10:04:41;;;;;;;2.90;0.97;;;;;;;7.04;100.00;99485.47;4941976;28;20200;-84
2022/01/04 10:07:08;;;;;;;1.30;0.80;;;;;;;6.34;100.00;99401.53;4970801;28;20434;-76
2022/01/04 10:09:37;;;;;;;3.77;1.10;;;;;;;7.11;100.00;99481.75;4972866;28;20444;-77
2022/01/04 10:12:06;;;;;;;2.77;0.80;;;;;;;7.01;100.00;99484.84;4972979;28;20988;-77
2022/01/04 10:15:13;;;;;;;;;;;;;;;;;;;;;
2022/01/04 10:17:48;;;;;;;1.90;1.00;;;;;;;6.50;100.00;99456.22;4973918;28;20451;-78
2022/01/04 10:20:22;;;;;;;2.60;0.90;;;;;;;6.29;100.00;99406.66;4973384;28;20729;-78
2022/01/04 10:22:53;;;;;;;2.60;0.80;;;;;;;6.52;100.00;99450.69;4962779;28;20457;-76
2022/01/04 10:25:27;;;;;;;3.60;0.93;;;;;;;6.50;100.00;99434.91;4964276;28;21002;-79
2022/01/04 10:27:59;;;;;;;2.67;0.90;;;;;;;6.06;100.00;99399.06;4968252;28;20660;-77
2022/01/04 10:30:30;;;;;;;2.87;1.00;;;;;;;6.64;100.00;99456.22;4971021;28;20570;-76
2022/01/04 10:32:59;;;;;;;7.80;1.10;;;;;;;6.61;100.00;99486.75;4969548;28;20499;-76
2022/01/04 10:36:00;;;;;;;2.17;0.70;;;;;;;6.68;100.00;99486.72;4973690;28;20448;-82
2022/01/04 10:38:34;;;;;;;3.00;1.30;;;;;;;6.90;100.00;99487.34;4971523;28;20499;-77
2022/01/04 10:41:07;;;;;;;1.67;1.10;;;;;;;6.52;100.00;99498.66;4954314;28;20441;-83
2022/01/04 10:43:47;;;;;;;1.73;0.77;;;;;;;6.43;100.00;99502.53;4968391;28;20421;-79
2022/01/04 10:46:18;;;;;;;2.23;0.70;;;;;;;6.61;100.00;99500.06;4968959;28;20439;-83
2022/01/04 10:48:46;;;;;;;0.60;0.60;;;;;;;6.76;100.00;99503.34;4969421;28;21469;-76
2022/01/04 10:51:15;;;;;;;1.10;0.80;;;;;;;6.50;100.00;99506.00;4965763;28;20449;-75
2022/01/04 10:53:45;;;;;;;0.70;0.50;;;;;;;6.37;100.00;99468.75;4957991;28;20868;-75
2022/01/04 10:56:13;;;;;;;3.07;0.60;;;;;;;6.46;100.00;99496.81;4957812;28;20855;-76
2022/01/04 10:58:51;;;;;;;3.50;0.80;;;;;;;6.07;100.00;99474.44;4982177;28;20441;-76
2022/01/04 11:01:22;;;;;;;2.63;0.67;;;;;;;6.40;100.00;99508.28;4968630;28;20463;-74
2022/01/04 11:04:20;;;;;;;2.07;0.70;;;;;;;6.23;100.00;99498.00;4967901;28;20821;-76
2022/01/04 11:06:46;;;;;;;2.70;0.90;;;;;;;6.20;100.00;99505.59;4957077;28;20458;-75
2022/01/04 11:09:13;;;;;;;1.13;0.70;;;;;;;6.45;100.00;99490.66;4968223;28;20806;-77
2022/01/04 11:11:40;;;;;;;2.40;0.80;;;;;;;5.94;100.00;99453.94;4971857;28;20467;-75
2022/01/04 11:14:08;;;;;;;9.73;1.23;;;;;;;5.94;100.00;99432.66;4971565;28;20430;-75
2022/01/04 11:16:33;;;;;;;1.90;0.90;;;;;;;6.40;100.00;99481.66;4984969;28;20516;-77
2022/01/04 11:19:01;;;;;;;2.33;0.70;;;;;;;6.14;100.00;99453.16;4968421;28;20449;-75
2022/01/04 11:21:32;;;;;;;2.93;0.90;;;;;;;6.52;100.00;99485.31;4969233;28;20387;-78
2022/01/04 11:24:01;;;;;;;2.20;0.80;;;;;;;6.21;100.00;99452.13;4973052;28;20441;-76
2022/01/04 11:26:27;;;;;;;3.83;1.30;;;;;;;5.12;100.00;99282.09;4971076;28;20806;-77
2022/01/04 11:28:54;;;;;;;5.70;1.10;;;;;;;6.11;100.00;99411.78;4962778;28;20441;-76
2022/01/04 11:31:38;;;;;;;4.70;1.30;;;;;;;6.43;100.00;99487.38;4972084;28;20473;-75
2022/01/04 11:34:09;;;;;;;3.73;1.00;;;;;;;6.62;100.00;99498.22;4973076;28;20471;-77
2022/01/04 11:36:50;;;;;;;2.40;0.90;;;;;;;6.48;100.00;99514.22;4971052;28;20452;-81
2022/01/04 11:39:36;;;;;;;4.83;1.00;;;;;;;6.25;100.00;99519.94;4981185;28;20440;-77
2022/01/04 11:42:34;;;;;;;5.47;1.10;;;;;;;6.12;100.00;99517.25;4968158;28;20445;-79
2022/01/04 11:45:00;;;;;;;4.60;1.17;;;;;;;6.07;100.00;99496.53;4965331;28;20520;-75
2022/01/04 11:47:29;;;;;;;2.97;1.10;;;;;;;6.00;100.00;99516.19;4969447;28;20438;-75
2022/01/04 11:50:20;;;;;;;2.40;1.00;;;;;;;6.39;100.00;99507.44;4954004;28;20523;-83
2022/01/04 11:52:55;;;;;;;6.93;1.17;;;;;;;6.09;100.00;99515.81;4967967;28;20570;-75
2022/01/04 11:55:36;;;;;;;2.93;1.37;;;;;;;5.66;100.00;99440.75;4973311;28;20440;-77
2022/01/04 11:58:14;;;;;;;4.10;1.00;;;;;;;6.19;100.00;99504.78;4972270;28;20420;-78